Time;durP1;ratioP1;P1;durP2;ratioP2;P2;SDS_P1;SDS_P2;PMS_P1;PMS_P2;Temp;Humidity;BMP_temperature;BMP_pressure;BME280_temperature;BME280_humidity;BME280_pressure;Samples;Min_cycle;Max_cycle;Signal;HPM_P1;HPM_P2
2021/05/05 00:01:56;;;;;;;12.18;7.70;;;;;;;5.80;68.09;97255.14;1724800;83;21167;-84
2021/05/05 00:04:24;;;;;;;12.95;7.15;;;;;;;5.77;68.78;97251.28;1725210;83;21127;-84
2021/05/05 00:06:56;;;;;;;12.98;6.65;;;;;;;5.77;67.88;97257.39;1724983;83;21147;-84
2021/05/05 00:09:24;;;;;;;11.12;6.95;;;;;;;5.77;67.22;97256.08;1724922;83;21132;-84
2021/05/05 00:11:52;;;;;;;10.30;7.00;;;;;;;5.79;67.93;97249.47;1725037;83;21147;-83
2021/05/05 00:14:21;;;;;;;10.20;6.58;;;;;;;5.81;66.88;97247.23;1726484;83;21305;-83
2021/05/05 00:16:49;;;;;;;8.65;6.25;;;;;;;5.79;66.92;97249.47;1726698;82;21229;-83
2021/05/05 00:19:16;;;;;;;11.15;5.92;;;;;;;5.79;66.40;97254.30;1727126;83;21146;-83
2021/05/05 00:21:45;;;;;;;9.20;5.08;;;;;;;5.81;66.61;97244.59;1728093;82;21150;-83
2021/05/05 00:24:14;;;;;;;9.55;5.25;;;;;;;5.82;66.37;97234.95;1741367;82;21138;-84
2021/05/05 00:26:41;;;;;;;9.05;5.30;;;;;;;5.87;66.34;97241.41;1751285;82;21106;-84
2021/05/05 00:29:09;;;;;;;9.10;6.33;;;;;;;5.85;65.89;97234.86;1754490;82;21461;-84
2021/05/05 00:31:36;;;;;;;7.40;5.35;;;;;;;5.86;66.07;97234.42;1755069;82;21096;-84
2021/05/05 00:34:04;;;;;;;9.20;5.55;;;;;;;5.77;67.10;97228.94;1755091;81;21135;-84
2021/05/05 00:36:32;;;;;;;7.17;5.20;;;;;;;5.73;66.36;97230.74;1751366;82;21150;-83
2021/05/05 00:38:59;;;;;;;8.28;4.97;;;;;;;5.72;66.32;97223.77;1754905;82;21146;-84
2021/05/05 00:41:27;;;;;;;12.37;5.53;;;;;;;5.73;68.20;97228.11;1749521;81;21193;-83
2021/05/05 00:43:54;;;;;;;7.95;5.05;;;;;;;5.71;66.19;97222.48;1754666;82;21146;-83
2021/05/05 00:46:22;;;;;;;9.78;4.95;;;;;;;5.68;67.31;97231.30;1731374;82;21107;-83
2021/05/05 00:48:49;;;;;;;7.70;5.12;;;;;;;5.69;66.53;97231.70;1725168;83;21143;-83
2021/05/05 00:51:17;;;;;;;6.25;4.45;;;;;;;5.70;65.87;97233.46;1724946;83;21493;-83
2021/05/05 00:53:45;;;;;;;6.60;4.35;;;;;;;5.68;66.86;97233.93;1725064;83;21152;-84
2021/05/05 00:56:13;;;;;;;5.97;3.98;;;;;;;5.67;66.63;97235.71;1725045;83;21130;-84
2021/05/05 00:58:40;;;;;;;7.28;4.58;;;;;;;5.65;66.71;97237.48;1725604;82;21118;-84
2021/05/05 01:01:07;;;;;;;5.67;4.25;;;;;;;5.65;66.24;97228.76;1753767;82;21111;-84
2021/05/05 01:03:35;;;;;;;9.15;5.03;;;;;;;5.65;65.95;97234.02;1754923;82;21162;-84
2021/05/05 01:06:06;;;;;;;8.65;4.70;;;;;;;5.65;66.45;97237.96;1749062;81;21484;-84
2021/05/05 01:08:35;;;;;;;6.50;4.67;;;;;;;5.64;66.65;97236.20;1744614;82;21766;-84
2021/05/05 01:11:02;;;;;;;8.00;4.28;;;;;;;5.66;66.48;97231.33;1727773;82;21521;-83
2021/05/05 01:13:32;;;;;;;6.17;4.70;;;;;;;5.69;65.59;97234.34;1726274;83;21151;-83
2021/05/05 01:16:00;;;;;;;7.30;4.58;;;;;;;5.68;66.77;97237.44;1739576;82;21636;-83
2021/05/05 01:18:28;;;;;;;10.03;4.42;;;;;;;5.67;66.18;97234.83;1754347;81;21166;-84
2021/05/05 01:20:59;;;;;;;7.62;4.95;;;;;;;5.62;66.88;97237.58;1753846;81;21190;-83
2021/05/05 01:23:28;;;;;;;7.55;4.50;;;;;;;5.63;66.14;97234.48;1754399;82;21473;-83
2021/05/05 01:25:58;;;;;;;8.68;4.37;;;;;;;5.61;65.91;97233.20;1754925;82;21135;-84
2021/05/05 01:28:25;;;;;;;5.75;4.30;;;;;;;5.59;66.87;97236.32;1729595;82;21138;-83
2021/05/05 01:30:53;;;;;;;7.80;4.87;;;;;;;5.57;66.23;97230.24;1726001;82;21111;-83
2021/05/05 01:33:21;;;;;;;6.30;4.33;;;;;;;5.57;65.67;97228.05;1751411;82;21104;-83
2021/05/05 01:35:50;;;;;;;8.45;4.72;;;;;;;5.57;65.37;97228.05;1697238;83;21127;-83
2021/05/05 01:38:18;;;;;;;9.90;4.72;;;;;;;5.57;65.59;97223.67;1748365;82;21492;-84
2021/05/05 01:40:47;;;;;;;8.83;4.85;;;;;;;5.59;66.06;97227.12;1746630;82;21107;-83
2021/05/05 01:43:15;;;;;;;6.08;4.30;;;;;;;5.60;66.01;97226.21;1725012;83;21178;-83
2021/05/05 01:45:43;;;;;;;11.38;4.80;;;;;;;5.60;67.28;97230.16;1696962;83;21135;-83
2021/05/05 01:48:11;;;;;;;8.23;4.70;;;;;;;5.55;66.48;97214.50;1746250;82;21071;-83
2021/05/05 01:50:39;;;;;;;6.90;4.70;;;;;;;5.56;66.93;97217.98;1754632;82;21126;-83
2021/05/05 01:53:08;;;;;;;7.60;4.70;;;;;;;5.54;66.55;97211.90;1754921;82;21504;-83
2021/05/05 01:55:37;;;;;;;8.18;4.37;;;;;;;5.54;66.45;97214.53;1754443;81;21261;-83
2021/05/05 01:58:07;;;;;;;10.25;4.80;;;;;;;5.56;67.57;97215.34;1747115;82;21115;-83
2021/05/05 02:00:35;;;;;;;7.40;4.75;;;;;;;5.58;66.40;97216.20;1753263;82;21691;-84
2021/05/05 02:03:06;;;;;;;7.22;4.33;;;;;;;5.58;67.16;97208.75;1724898;83;21135;-83
2021/05/05 02:05:44;;;;;;;8.90;4.70;;;;;;;5.58;66.50;97192.54;1813886;79;23039;-83
2021/05/05 02:08:13;;;;;;;8.60;5.28;;;;;;;5.53;67.45;97189.15;1756213;80;21098;-83
2021/05/05 02:10:42;;;;;;;6.53;4.65;;;;;;;5.52;66.52;97181.70;1708166;83;21132;-83
2021/05/05 02:13:11;;;;;;;7.05;4.67;;;;;;;5.50;66.52;97186.58;1690209;84;21168;-83
2021/05/05 02:15:38;;;;;;;8.63;4.40;;;;;;;5.47;68.61;97187.52;1689830;84;21117;-83
2021/05/05 02:18:10;;;;;;;8.35;4.78;;;;;;;5.45;67.94;97184.50;1708276;84;21282;-83
2021/05/05 02:20:37;;;;;;;10.23;5.28;;;;;;;5.42;67.65;97178.87;1708207;83;21301;-83
2021/05/05 02:23:05;;;;;;;8.20;5.10;;;;;;;5.37;68.30;97181.61;1678685;84;21552;-83
2021/05/05 02:25:34;;;;;;;8.30;5.20;;;;;;;5.32;68.75;97176.03;1705437;84;21182;-82
2021/05/05 02:28:04;;;;;;;8.58;5.08;;;;;;;5.28;68.71;97171.30;1726500;82;21107;-82
2021/05/05 02:30:34;;;;;;;6.28;4.67;;;;;;;5.24;68.78;97175.73;1719333;83;21087;-83
2021/05/05 02:33:06;;;;;;;8.88;4.72;;;;;;;5.23;68.29;97180.58;1740344;82;21183;-82
2021/05/05 02:35:34;;;;;;;6.22;4.37;;;;;;;5.09;71.55;97180.87;1720051;83;21435;-83
2021/05/05 02:38:03;;;;;;;5.42;4.22;;;;;;;5.03;71.12;97181.01;1741860;82;21439;-84
2021/05/05 02:40:31;;;;;;;7.55;4.80;;;;;;;5.04;68.91;97175.29;1722251;82;21505;-81
2021/05/05 02:42:59;;;;;;;6.62;4.70;;;;;;;5.12;68.98;97170.75;1749487;82;21146;-81
2021/05/05 02:45:27;;;;;;;8.50;4.87;;;;;;;5.20;69.39;97158.77;1749582;82;21143;-81
2021/05/05 02:47:55;;;;;;;8.20;4.87;;;;;;;5.27;69.57;97160.34;1698567;83;21126;-81
2021/05/05 02:50:23;;;;;;;6.55;4.37;;;;;;;5.34;69.45;97148.82;1719975;82;21288;-81
2021/05/05 02:52:51;;;;;;;7.47;4.00;;;;;;;5.39;70.13;97150.02;1719858;83;21272;-82
2021/05/05 02:55:18;;;;;;;5.62;4.55;;;;;;;5.44;70.73;97147.30;1719954;83;21520;-82
2021/05/05 02:57:47;;;;;;;6.35;4.20;;;;;;;5.51;70.57;97146.25;1731123;82;21092;-82
2021/05/05 03:00:16;;;;;;;5.22;3.83;;;;;;;5.63;70.93;97148.61;1723882;82;21532;-82
2021/05/05 03:02:43;;;;;;;7.53;4.22;;;;;;;5.70;70.69;97155.03;1719833;83;21272;-82
2021/05/05 03:05:12;;;;;;;8.78;4.72;;;;;;;5.72;71.35;97152.78;1724539;82;21273;-82
2021/05/05 03:07:39;;;;;;;9.05;5.30;;;;;;;5.65;70.59;97162.56;1739470;82;21488;-83
2021/05/05 03:10:09;;;;;;;8.38;5.40;;;;;;;5.63;70.08;97153.87;1725863;83;21158;-81
2021/05/05 03:12:37;;;;;;;12.85;6.20;;;;;;;5.62;70.01;97153.46;1725930;83;21175;-83
2021/05/05 03:15:10;;;;;;;11.08;5.78;;;;;;;5.60;69.83;97157.02;1725871;83;21159;-83
2021/05/05 03:17:39;;;;;;;9.85;5.78;;;;;;;5.53;69.63;97149.25;1740771;82;21107;-83
2021/05/05 03:20:09;;;;;;;10.23;5.97;;;;;;;5.50;69.63;97149.78;1755154;82;21170;-83
2021/05/05 03:22:37;;;;;;;7.75;5.00;;;;;;;5.49;69.55;97152.00;1727184;82;21698;-83
2021/05/05 03:25:08;;;;;;;11.33;5.37;;;;;;;5.48;69.24;97160.33;1725173;83;21175;-83
2021/05/05 03:27:36;;;;;;;9.18;5.62;;;;;;;5.46;69.29;97154.69;1747398;82;21138;-83
2021/05/05 03:30:07;;;;;;;9.60;5.92;;;;;;;5.47;69.26;97156.41;1755263;82;21131;-84
2021/05/05 03:32:35;;;;;;;8.50;5.92;;;;;;;5.49;69.47;97158.11;1755547;81;21162;-83
2021/05/05 03:35:04;;;;;;;12.40;6.33;;;;;;;5.52;68.83;97161.99;1752200;82;21461;-83
2021/05/05 03:37:34;;;;;;;10.20;6.17;;;;;;;5.55;68.87;97157.98;1726041;82;21091;-84
2021/05/05 03:40:04;;;;;;;11.25;5.40;;;;;;;5.56;68.48;97162.78;1725070;83;21159;-82
2021/05/05 03:42:33;;;;;;;10.48;6.28;;;;;;;5.53;69.50;97164.18;1725265;83;21110;-82
2021/05/05 03:45:04;;;;;;;27.07;7.78;;;;;;;5.50;68.80;97159.86;1749368;82;21139;-82
2021/05/05 03:47:32;;;;;;;10.10;6.65;;;;;;;5.53;68.91;97159.77;1750567;81;21485;-82
2021/05/05 03:50:01;;;;;;;11.53;7.05;;;;;;;5.57;69.01;97171.10;1735843;82;21158;-82
2021/05/05 03:52:29;;;;;;;8.95;6.35;;;;;;;5.62;69.32;97166.61;1755203;82;21131;-82
2021/05/05 03:54:56;;;;;;;10.25;6.35;;;;;;;5.68;70.09;97179.59;1733707;82;21115;-83
2021/05/05 03:57:24;;;;;;;12.18;6.55;;;;;;;5.73;69.27;97177.31;1725400;82;21501;-83
2021/05/05 03:59:51;;;;;;;12.18;5.92;;;;;;;5.76;68.87;97180.73;1725067;83;21107;-82
2021/05/05 04:02:19;;;;;;;13.00;6.08;;;;;;;5.79;68.93;97187.24;1725301;83;21142;-82
2021/05/05 04:04:46;;;;;;;12.18;6.20;;;;;;;5.84;69.00;97187.56;1741451;82;21497;-81
2021/05/05 04:07:14;;;;;;;10.85;6.12;;;;;;;5.87;68.48;97188.37;1748994;82;21501;-82
2021/05/05 04:09:43;;;;;;;11.15;6.00;;;;;;;5.92;68.29;97183.87;1749077;82;21119;-81
2021/05/05 04:12:12;;;;;;;10.03;6.33;;;;;;;5.98;68.44;97186.78;1748526;82;21146;-83
2021/05/05 04:14:39;;;;;;;8.68;5.67;;;;;;;6.05;67.96;97177.89;1719889;82;21123;-82
2021/05/05 04:17:25;;;;;;;9.58;5.08;;;;;;;6.12;67.93;97184.30;1719407;83;21147;-82
2021/05/05 04:20:13;;;;;;;9.03;5.58;;;;;;;6.20;67.58;97175.78;1719462;83;21466;-82
2021/05/05 04:22:59;;;;;;;9.08;5.58;;;;;;;6.29;67.67;97179.94;1719271;83;21135;-82
2021/05/05 04:25:44;;;;;;;7.62;5.37;;;;;;;6.36;67.21;97177.58;1727537;82;21514;-83
2021/05/05 04:28:12;;;;;;;13.48;5.53;;;;;;;6.45;67.35;97189.15;1719143;83;21493;-83
2021/05/05 04:30:39;;;;;;;12.00;5.55;;;;;;;6.51;67.43;97189.45;1719394;83;21498;-83
2021/05/05 04:33:07;;;;;;;11.30;5.83;;;;;;;6.58;66.98;97192.36;1692902;83;21143;-83
2021/05/05 04:35:35;;;;;;;9.98;6.10;;;;;;;6.63;66.63;97185.63;1746634;82;21143;-83
2021/05/05 04:38:02;;;;;;;11.48;6.10;;;;;;;6.66;66.49;97178.98;1741859;82;21501;-82
2021/05/05 04:40:30;;;;;;;12.73;6.42;;;;;;;6.72;66.21;97177.93;1748837;82;21521;-82
2021/05/05 04:42:57;;;;;;;14.75;5.97;;;;;;;6.79;66.13;97174.68;1748864;82;21669;-82
2021/05/05 04:45:25;;;;;;;12.33;6.40;;;;;;;6.87;66.09;97177.97;1732181;82;21119;-83
2021/05/05 04:47:52;;;;;;;11.53;6.78;;;;;;;6.94;65.77;97171.61;1719542;83;21509;-82
2021/05/05 04:50:20;;;;;;;19.25;6.50;;;;;;;6.98;65.48;97171.94;1720180;83;21268;-82
2021/05/05 04:52:47;;;;;;;12.28;6.03;;;;;;;7.02;65.64;97167.91;1719977;83;21541;-83
2021/05/05 04:55:15;;;;;;;13.20;6.62;;;;;;;7.12;65.71;97166.73;1720099;82;21150;-83
2021/05/05 04:57:43;;;;;;;10.30;6.70;;;;;;;7.23;65.54;97172.55;1744030;82;21131;-83
2021/05/05 05:00:13;;;;;;;9.23;6.45;;;;;;;7.33;65.22;97164.37;1697785;83;21098;-82
2021/05/05 05:02:41;;;;;;;13.43;6.97;;;;;;;7.43;65.03;97167.13;1732331;82;21588;-82
2021/05/05 05:05:09;;;;;;;13.90;6.35;;;;;;;7.52;64.76;97161.58;1739577;82;21113;-81
2021/05/05 05:07:37;;;;;;;15.85;6.17;;;;;;;7.64;64.53;97161.66;1721143;82;21521;-82
2021/05/05 05:10:07;;;;;;;10.78;5.62;;;;;;;7.75;63.23;97163.09;1719211;83;21147;-82
2021/05/05 05:12:35;;;;;;;9.55;5.95;;;;;;;7.83;63.42;97169.44;1719366;83;21387;-82
2021/05/05 05:15:03;;;;;;;11.55;5.87;;;;;;;7.91;62.78;97172.27;1738631;82;21128;-83
2021/05/05 05:17:30;;;;;;;14.60;6.35;;;;;;;7.96;62.82;97172.10;1748832;82;21285;-84
2021/05/05 05:19:58;;;;;;;12.07;6.35;;;;;;;8.02;62.08;97164.45;1721899;82;21147;-83
2021/05/05 05:22:26;;;;;;;10.00;6.15;;;;;;;8.10;62.47;97161.56;1746760;82;21151;-83
2021/05/05 05:24:53;;;;;;;11.08;6.72;;;;;;;8.23;62.47;97159.38;1729870;82;21175;-83
2021/05/05 05:27:20;;;;;;;11.88;6.47;;;;;;;8.36;62.32;97165.09;1742419;82;21265;-83
2021/05/05 05:29:48;;;;;;;10.98;6.42;;;;;;;8.47;61.98;97162.94;1746648;82;21134;-82
2021/05/05 05:32:15;;;;;;;16.35;6.62;;;;;;;8.52;61.35;97162.80;1723402;82;21155;-81
2021/05/05 05:34:45;;;;;;;11.65;6.78;;;;;;;8.59;61.41;97161.68;1739050;81;21126;-81
2021/05/05 05:37:12;;;;;;;12.58;7.40;;;;;;;8.68;61.01;97165.80;1749053;82;21529;-82
2021/05/05 05:39:40;;;;;;;16.77;8.05;;;;;;;8.76;61.35;97159.77;1744933;82;21265;-81
2021/05/05 05:42:08;;;;;;;14.93;7.92;;;;;;;8.85;61.17;97156.80;1732252;82;21193;-81
2021/05/05 05:44:35;;;;;;;17.20;7.70;;;;;;;8.92;60.82;97154.80;1733553;82;21096;-82
2021/05/05 05:47:03;;;;;;;14.95;7.87;;;;;;;8.98;60.32;97155.05;1736354;82;21114;-83
2021/05/05 05:49:30;;;;;;;12.03;7.50;;;;;;;9.02;60.27;97153.14;1748992;82;21277;-82
2021/05/05 05:51:58;;;;;;;15.70;8.45;;;;;;;9.09;60.34;97155.95;1748817;82;21133;-82
2021/05/05 05:54:27;;;;;;;11.95;8.38;;;;;;;9.16;59.99;97152.61;1749029;82;21174;-82
2021/05/05 05:56:55;;;;;;;11.55;8.33;;;;;;;9.25;60.02;97156.23;1734819;82;21198;-81
2021/05/05 05:59:22;;;;;;;16.23;8.20;;;;;;;9.34;59.86;97152.41;1723089;82;21517;-77
2021/05/05 06:01:50;;;;;;;17.20;8.20;;;;;;;9.44;59.57;97155.55;1732432;82;21142;-79
2021/05/05 06:04:18;;;;;;;14.68;8.20;;;;;;;9.53;59.28;97156.96;1723897;82;21514;-77
2021/05/05 06:06:47;;;;;;;13.45;8.13;;;;;;;9.62;59.26;97165.41;1746333;82;21309;-77
2021/05/05 06:09:15;;;;;;;16.87;8.70;;;;;;;9.73;59.20;97155.73;1749171;82;21162;-77
2021/05/05 06:11:42;;;;;;;13.13;8.23;;;;;;;9.85;58.93;97156.16;1748980;82;21147;-78
2021/05/05 06:14:10;;;;;;;17.57;8.53;;;;;;;9.94;58.70;97150.95;1748868;82;21297;-77
2021/05/05 06:16:37;;;;;;;12.07;8.08;;;;;;;10.05;58.58;97150.04;1728865;82;21513;-76
2021/05/05 06:19:05;;;;;;;22.60;14.63;;;;;;;10.16;58.59;97150.48;1719293;83;21525;-76
2021/05/05 06:21:34;;;;;;;13.60;8.83;;;;;;;10.27;58.61;97146.52;1707558;84;21503;-75
2021/05/05 06:26:41;;;;;;;17.20;9.65;;;;;;;10.39;57.49;97135.87;1772568;79;23081;-76
2021/05/05 06:29:08;;;;;;;22.15;10.60;;;;;;;10.41;57.97;97145.92;1728556;82;21528;-76
2021/05/05 06:31:39;;;;;;;19.82;10.43;;;;;;;10.46;57.13;97136.50;1692625;84;21504;-76
2021/05/05 06:34:06;;;;;;;20.00;9.80;;;;;;;10.52;57.13;97135.78;1692526;84;21504;-76
2021/05/05 06:36:34;;;;;;;18.92;9.38;;;;;;;10.62;57.34;97125.63;1684841;85;21494;-76
2021/05/05 06:39:08;;;;;;;11.33;8.43;;;;;;;10.75;57.13;97131.23;1692644;84;21181;-75
2021/05/05 06:41:36;;;;;;;14.55;8.88;;;;;;;10.83;56.66;97124.27;1692649;84;21157;-76
2021/05/05 06:44:05;;;;;;;14.50;8.80;;;;;;;10.78;55.04;97125.81;1692683;84;21122;-76
2021/05/05 06:46:34;;;;;;;17.02;9.98;;;;;;;10.82;55.95;97108.85;1698094;84;21174;-82
2021/05/05 06:49:02;;;;;;;15.05;10.63;;;;;;;10.97;55.48;97115.72;1693937;84;21127;-83
2021/05/05 06:51:30;;;;;;;23.70;11.63;;;;;;;11.14;54.92;97114.07;1703636;84;21159;-82
2021/05/05 06:53:57;;;;;;;21.65;11.73;;;;;;;11.28;54.63;97112.09;1690353;84;21091;-81
2021/05/05 06:56:26;;;;;;;23.67;12.43;;;;;;;11.38;55.71;97105.42;1705624;83;21770;-79
2021/05/05 06:58:54;;;;;;;23.90;11.90;;;;;;;11.54;55.37;97102.06;1668093;84;21150;-82
2021/05/05 07:01:21;;;;;;;25.50;12.23;;;;;;;11.68;55.35;97096.95;1698901;84;21544;-81
2021/05/05 07:03:49;;;;;;;26.48;12.18;;;;;;;11.79;54.91;97095.08;1676181;84;21476;-83
2021/05/05 07:06:17;;;;;;;20.20;11.80;;;;;;;11.95;53.75;97092.53;1676675;84;21130;-83
2021/05/05 07:08:46;;;;;;;24.07;12.70;;;;;;;12.08;53.33;97094.13;1673761;85;21511;-83
2021/05/05 07:11:15;;;;;;;21.42;11.60;;;;;;;12.20;53.60;97090.00;1678937;85;21149;-83
2021/05/05 07:13:43;;;;;;;20.32;11.57;;;;;;;12.34;53.10;97091.94;1696732;84;21489;-83
2021/05/05 07:16:13;;;;;;;18.02;11.08;;;;;;;12.47;53.83;97089.53;1677860;85;21181;-83
2021/05/05 07:18:40;;;;;;;17.23;10.15;;;;;;;12.64;53.34;97091.77;1701160;84;21131;-83
2021/05/05 07:21:08;;;;;;;18.05;10.18;;;;;;;12.76;53.28;97086.28;1694991;84;21147;-84
2021/05/05 07:23:35;;;;;;;19.25;10.65;;;;;;;12.86;51.97;97091.48;1694802;84;21151;-83
2021/05/05 07:26:03;;;;;;;14.05;9.55;;;;;;;12.95;52.20;97083.48;1684695;83;21127;-83
2021/05/05 07:28:31;;;;;;;17.90;9.80;;;;;;;13.04;52.73;97075.00;1660763;85;21112;-83
2021/05/05 07:30:58;;;;;;;18.48;10.10;;;;;;;13.12;52.53;97071.92;1681646;85;21182;-83
2021/05/05 07:33:26;;;;;;;18.32;10.00;;;;;;;13.20;52.60;97075.48;1678218;84;21533;-84
2021/05/05 07:35:56;;;;;;;18.55;9.95;;;;;;;13.20;52.22;97064.84;1661526;85;21187;-84
2021/05/05 07:46:30;;;;;;;17.02;11.00;;;;;;;13.56;52.71;97055.79;1711263;83;21179;-84
2021/05/05 07:48:58;;;;;;;17.75;10.23;;;;;;;13.78;52.77;97055.88;1711296;83;21155;-85
2021/05/05 07:51:25;;;;;;;15.00;10.50;;;;;;;13.98;52.39;97056.52;1725375;82;21131;-82
2021/05/05 07:53:52;;;;;;;23.67;10.38;;;;;;;14.17;52.61;97056.77;1715116;82;21135;-82
2021/05/05 07:56:20;;;;;;;13.38;10.03;;;;;;;14.26;52.34;97049.56;1724632;82;21100;-81
2021/05/05 07:58:47;;;;;;;14.65;10.38;;;;;;;14.36;52.51;97045.39;1728590;82;21120;-86
2021/05/05 08:01:16;;;;;;;14.15;9.68;;;;;;;14.47;52.08;97039.42;1732070;82;21132;-81
2021/05/05 08:03:46;;;;;;;14.13;9.58;;;;;;;14.58;52.10;97035.23;1710714;83;21178;-83
2021/05/05 08:06:16;;;;;;;15.83;9.60;;;;;;;14.64;51.74;97033.05;1711218;82;21533;-84
2021/05/05 08:08:44;;;;;;;14.35;9.03;;;;;;;14.70;52.13;97033.12;1728011;82;21080;-84
2021/05/05 08:11:11;;;;;;;14.60;9.28;;;;;;;14.78;52.01;97034.89;1732287;82;21484;-84
2021/05/05 08:13:39;;;;;;;12.60;8.85;;;;;;;14.89;52.04;97030.22;1726585;82;21147;-82
2021/05/05 08:16:08;;;;;;;13.30;8.70;;;;;;;14.93;50.84;97022.01;1725684;82;21167;-85
2021/05/05 08:18:37;;;;;;;16.85;8.30;;;;;;;14.95;51.04;97018.78;1713983;82;21482;-84
2021/05/05 08:21:07;;;;;;;14.45;8.55;;;;;;;14.95;51.11;97016.11;1725218;82;21163;-86
2021/05/05 08:23:37;;;;;;;11.60;8.28;;;;;;;15.01;51.70;97013.92;1723956;82;21092;-84
2021/05/05 08:26:07;;;;;;;13.78;7.42;;;;;;;15.12;51.49;97013.70;1728053;82;21130;-83
2021/05/05 08:28:35;;;;;;;10.90;7.65;;;;;;;15.23;51.67;97019.70;1723094;82;21084;-84
2021/05/05 08:31:04;;;;;;;14.50;7.22;;;;;;;15.31;51.51;97016.91;1725570;82;21115;-83
2021/05/05 08:33:33;;;;;;;13.38;7.37;;;;;;;15.39;51.97;97012.87;1726567;82;21540;-84
2021/05/05 08:36:01;;;;;;;13.28;7.62;;;;;;;15.42;49.96;97008.20;1725335;82;21119;-84
2021/05/05 08:38:29;;;;;;;13.95;7.30;;;;;;;15.42;49.72;97010.88;1732855;82;21211;-81
2021/05/05 08:40:56;;;;;;;13.15;6.53;;;;;;;15.49;50.77;97005.97;1717757;82;21115;-87
2021/05/05 08:43:24;;;;;;;14.78;7.72;;;;;;;15.57;50.65;97014.34;1725167;82;21148;-84
2021/05/05 08:45:59;;;;;;;19.95;7.70;;;;;;;15.60;50.15;97014.61;1735293;82;21128;-81
2021/05/05 08:48:27;;;;;;;17.98;7.42;;;;;;;15.62;50.39;97010.52;1718250;82;21309;-82
2021/05/05 08:50:54;;;;;;;10.78;7.10;;;;;;;15.66;50.63;97005.35;1724240;82;21179;-82
2021/05/05 08:53:22;;;;;;;12.73;6.40;;;;;;;15.71;50.66;97008.57;1728610;82;21124;-85
2021/05/05 08:55:50;;;;;;;12.47;6.80;;;;;;;15.76;50.55;97001.58;1719687;82;21127;-83
2021/05/05 08:58:17;;;;;;;12.75;6.65;;;;;;;15.79;51.13;96996.03;1730827;82;21505;-84
2021/05/05 09:00:44;;;;;;;10.75;6.20;;;;;;;15.80;51.90;96989.27;1733526;82;21139;-85
2021/05/05 09:03:12;;;;;;;12.18;6.58;;;;;;;15.84;51.24;96984.56;1713049;82;21294;-83
2021/05/05 09:06:00;;;;;;;8.88;5.78;;;;;;;15.93;51.17;96983.07;1724150;82;21126;-83
2021/05/05 09:08:31;;;;;;;27.15;14.87;;;;;;;16.01;50.48;96979.44;1737132;82;21167;-81
2021/05/05 09:11:06;;;;;;;16.50;7.67;;;;;;;16.13;50.94;96975.08;1739960;82;21521;-83
2021/05/05 09:13:47;;;;;;;13.30;5.40;;;;;;;16.30;50.41;96968.56;1740032;82;21612;-85
2021/05/05 09:16:28;;;;;;;12.20;5.33;;;;;;;16.51;48.45;96964.00;1722708;82;21730;-84
2021/05/05 09:19:06;;;;;;;7.58;4.83;;;;;;;16.70;48.92;96963.54;1726252;82;21100;-87
2021/05/05 09:21:52;;;;;;;7.62;3.98;;;;;;;16.85;44.17;96960.27;1729227;82;21076;-83
2021/05/05 09:24:30;;;;;;;13.30;4.45;;;;;;;16.97;44.79;96960.33;1732692;82;21100;-84
2021/05/05 09:27:06;;;;;;;4.30;2.90;;;;;;;17.18;44.72;96950.42;1719804;82;21237;-84
2021/05/05 09:29:45;;;;;;;5.37;2.50;;;;;;;17.41;42.33;96946.87;1726397;82;21469;-83
2021/05/05 09:32:18;;;;;;;4.10;2.30;;;;;;;17.64;38.91;96943.44;1732483;82;21099;-82
2021/05/05 09:35:01;;;;;;;3.45;2.40;;;;;;;17.87;37.88;96934.14;1723851;82;21132;-84
2021/05/05 09:37:37;;;;;;;3.20;2.00;;;;;;;18.10;34.05;96935.58;1830442;77;22604;-82
2021/05/05 09:40:11;;;;;;;3.80;2.02;;;;;;;18.06;33.53;96936.28;1796464;79;21488;-83
2021/05/05 09:42:40;;;;;;;4.78;2.20;;;;;;;18.18;34.96;96928.64;1801721;79;21163;-83
2021/05/05 09:45:13;;;;;;;3.58;2.22;;;;;;;18.31;34.98;96927.19;1779973;79;21178;-82
2021/05/05 09:48:00;;;;;;;7.70;2.33;;;;;;;18.45;33.06;96931.48;1792278;78;21139;-82
2021/05/05 09:50:42;;;;;;;4.50;2.37;;;;;;;18.56;33.01;96919.88;1810136;79;21111;-81
2021/05/05 09:53:26;;;;;;;2.77;2.05;;;;;;;18.70;33.53;96912.56;1751749;82;21508;-82
2021/05/05 09:56:05;;;;;;;3.52;2.20;;;;;;;18.91;34.72;96903.27;1742822;82;21119;-83
2021/05/05 09:58:40;;;;;;;4.20;1.98;;;;;;;19.15;35.04;96900.92;1733248;82;21107;-83
2021/05/05 10:01:12;;;;;;;3.02;2.00;;;;;;;19.32;33.73;96886.58;1736208;82;21517;-83
2021/05/05 10:03:55;;;;;;;3.12;2.10;;;;;;;19.51;33.53;96876.47;1752645;81;21264;-83
2021/05/05 10:06:36;;;;;;;2.70;1.98;;;;;;;19.67;33.78;96868.48;1723756;81;21305;-85
2021/05/05 10:09:10;;;;;;;2.55;2.00;;;;;;;19.90;34.38;96858.44;1703940;83;21130;-82
2021/05/05 10:11:44;;;;;;;3.02;2.00;;;;;;;20.16;33.58;96855.34;1713815;82;21673;-83
2021/05/05 10:14:15;;;;;;;4.75;2.50;;;;;;;20.37;34.66;96845.88;1713495;82;21124;-83
2021/05/05 10:16:50;;;;;;;3.05;2.17;;;;;;;20.61;31.79;96849.21;1713588;83;21159;-83
2021/05/05 10:19:26;;;;;;;3.65;2.62;;;;;;;20.77;33.31;96844.17;1705422;81;21147;-82
2021/05/05 10:22:00;;;;;;;3.72;2.35;;;;;;;20.89;32.46;96844.91;1704375;81;21480;-81
2021/05/05 10:24:31;;;;;;;5.55;2.52;;;;;;;20.78;31.02;96840.48;1703149;83;21738;-75
2021/05/05 10:26:59;;;;;;;5.15;2.52;;;;;;;20.80;32.58;96834.45;1735885;82;21084;-80
2021/05/05 10:29:28;;;;;;;6.40;2.55;;;;;;;20.80;32.48;96829.07;1734711;81;21112;-80
2021/05/05 10:32:01;;;;;;;3.12;2.25;;;;;;;20.88;32.04;96820.84;1735418;82;21115;-80
2021/05/05 10:34:30;;;;;;;5.58;3.35;;;;;;;20.93;32.28;96819.92;1724915;82;21155;-82
2021/05/05 10:37:01;;;;;;;6.12;2.05;;;;;;;20.93;32.08;96815.88;1723124;82;21136;-81
2021/05/05 10:39:42;;;;;;;6.58;2.50;;;;;;;20.88;32.08;96812.77;1711391;82;21526;-81
2021/05/05 10:42:21;;;;;;;2.95;2.10;;;;;;;20.79;31.85;96802.28;1709947;83;21513;-81
2021/05/05 10:47:37;;;;;;;3.62;2.37;;;;;;;20.66;32.28;96805.23;1810871;77;23060;-83
2021/05/05 10:50:13;;;;;;;3.22;2.52;;;;;;;20.92;31.37;96802.07;1705874;82;21141;-78
2021/05/05 10:52:55;;;;;;;2.85;2.10;;;;;;;21.51;29.52;96799.36;1717865;83;21090;-76
2021/05/05 10:55:38;;;;;;;5.90;2.33;;;;;;;22.33;28.10;96793.96;1693453;83;21132;-77
2021/05/05 10:58:15;;;;;;;2.58;2.30;;;;;;;22.57;27.23;96789.38;1743495;80;21237;-76
2021/05/05 11:00:48;;;;;;;3.37;2.22;;;;;;;22.89;28.46;96779.08;1725346;82;21301;-77
2021/05/05 11:03:46;;;;;;;5.70;2.27;;;;;;;23.27;28.07;96777.56;1730029;82;21644;-80
2021/05/05 11:06:37;;;;;;;3.62;2.47;;;;;;;23.90;25.89;96780.23;1740892;81;21193;-78
2021/05/05 11:09:17;;;;;;;2.55;2.20;;;;;;;23.46;26.05;96769.30;1725605;83;21592;-75
2021/05/05 11:11:51;;;;;;;6.35;2.20;;;;;;;23.16;27.99;96771.89;1769438;80;21737;-75
2021/05/05 11:14:33;;;;;;;3.45;2.50;;;;;;;22.89;28.37;96769.63;1715264;82;21116;-75
2021/05/05 11:19:41;;;;;;;3.20;2.40;;;;;;;22.21;29.12;96773.89;1740995;82;21216;-73
2021/05/05 11:22:33;;;;;;;3.50;2.52;;;;;;;21.95;29.17;96765.14;1763362;81;21228;-75
2021/05/05 11:25:19;;;;;;;6.72;2.85;;;;;;;21.58;29.69;96772.17;1747196;81;21245;-80
2021/05/05 11:27:51;;;;;;;5.08;2.83;;;;;;;21.20;31.14;96769.39;1742075;80;21451;-79
2021/05/05 11:30:33;;;;;;;3.87;2.90;;;;;;;21.05;32.05;96751.45;1762240;80;21495;-81
2021/05/05 11:33:10;;;;;;;3.02;2.40;;;;;;;20.96;33.15;96739.69;1766859;79;23061;-81
2021/05/05 11:35:39;;;;;;;5.62;3.20;;;;;;;20.76;32.95;96740.66;1740371;82;21229;-77
2021/05/05 11:38:18;;;;;;;5.12;2.62;;;;;;;20.64;33.58;96742.11;1742246;82;21155;-72
2021/05/05 11:40:56;;;;;;;3.15;2.55;;;;;;;20.62;32.75;96754.87;1738309;82;21113;-75
2021/05/05 11:43:27;;;;;;;4.40;2.72;;;;;;;20.54;28.54;96738.08;1736484;82;21123;-78
2021/05/05 11:45:59;;;;;;;4.03;2.22;;;;;;;20.53;30.87;96737.73;1725132;82;21119;-81
2021/05/05 11:48:35;;;;;;;3.58;2.60;;;;;;;20.46;27.97;96735.73;1726690;82;21166;-80
2021/05/05 11:51:16;;;;;;;4.15;2.80;;;;;;;20.64;27.55;96739.94;1729145;82;21123;-75
2021/05/05 11:53:44;;;;;;;4.35;2.90;;;;;;;20.74;28.84;96738.58;1742561;81;21273;-73
2021/05/05 11:56:18;;;;;;;3.17;2.62;;;;;;;20.69;27.42;96739.02;1723841;83;21143;-73
2021/05/05 11:59:00;;;;;;;5.80;2.70;;;;;;;20.74;27.74;96734.06;1724913;82;21162;-71
2021/05/05 12:01:32;;;;;;;5.42;2.45;;;;;;;20.84;29.06;96728.66;1726110;82;21122;-72
2021/05/05 12:04:21;;;;;;;6.47;3.65;;;;;;;20.86;28.34;96723.14;1724526;83;21174;-74
2021/05/05 12:06:58;;;;;;;5.53;2.15;;;;;;;21.24;28.49;96717.41;1730561;82;21233;-72